TAF Text Data
IDs:
Format:
Raw Decoded Include METAR

Data at: 1437 UTC 19 Feb 2020

KMTN 191120Z 1912/2012 32009KT P6SM BKN120
  FM191400 32010G17KT P6SM SCT250
  FM192100 31011KT P6SM SKC
  FM200500 33005KT P6SM FEW250